sensor_id;sensor_type;location;lat;lon;timestamp;P1;durP1;ratioP1;P2;durP2;ratioP2
8480;SDS011;4277;51.354;6.740;2024-02-28T00:00:51;29.33;;;17.73;;
8480;SDS011;4277;51.354;6.740;2024-02-28T00:03:18;31.77;;;18.60;;
8480;SDS011;4277;51.354;6.740;2024-02-28T00:05:43;32.50;;;18.53;;
8480;SDS011;4277;51.354;6.740;2024-02-28T00:08:10;28.57;;;17.93;;
8480;SDS011;4277;51.354;6.740;2024-02-28T00:10:36;31.20;;;18.40;;
8480;SDS011;4277;51.354;6.740;2024-02-28T00:13:02;33.77;;;18.83;;
8480;SDS011;4277;51.354;6.740;2024-02-28T00:15:28;34.33;;;18.40;;
8480;SDS011;4277;51.354;6.740;2024-02-28T00:17:54;33.57;;;18.83;;
8480;SDS011;4277;51.354;6.740;2024-02-28T00:20:20;33.57;;;18.97;;
8480;SDS011;4277;51.354;6.740;2024-02-28T00:22:46;30.80;;;18.60;;
8480;SDS011;4277;51.354;6.740;2024-02-28T00:25:12;38.00;;;20.10;;
8480;SDS011;4277;51.354;6.740;2024-02-28T00:27:38;30.37;;;17.30;;
8480;SDS011;4277;51.354;6.740;2024-02-28T00:30:04;33.00;;;17.77;;
8480;SDS011;4277;51.354;6.740;2024-02-28T00:32:31;33.60;;;17.43;;
8480;SDS011;4277;51.354;6.740;2024-02-28T00:34:57;34.33;;;18.47;;
8480;SDS011;4277;51.354;6.740;2024-02-28T00:37:23;35.50;;;19.07;;
8480;SDS011;4277;51.354;6.740;2024-02-28T00:39:50;36.43;;;18.97;;
8480;SDS011;4277;51.354;6.740;2024-02-28T00:42:16;34.87;;;19.63;;
8480;SDS011;4277;51.354;6.740;2024-02-28T00:44:42;34.33;;;19.17;;
8480;SDS011;4277;51.354;6.740;2024-02-28T00:47:08;35.37;;;19.53;;
8480;SDS011;4277;51.354;6.740;2024-02-28T00:49:34;33.17;;;19.27;;
8480;SDS011;4277;51.354;6.740;2024-02-28T00:52:00;32.67;;;18.80;;
8480;SDS011;4277;51.354;6.740;2024-02-28T00:54:26;33.73;;;19.03;;
8480;SDS011;4277;51.354;6.740;2024-02-28T00:56:53;30.50;;;18.70;;
8480;SDS011;4277;51.354;6.740;2024-02-28T00:59:18;39.53;;;19.90;;
8480;SDS011;4277;51.354;6.740;2024-02-28T01:01:44;31.90;;;18.40;;
8480;SDS011;4277;51.354;6.740;2024-02-28T01:04:10;34.97;;;18.33;;
8480;SDS011;4277;51.354;6.740;2024-02-28T01:06:36;54.67;;;20.17;;
8480;SDS011;4277;51.354;6.740;2024-02-28T01:09:02;36.73;;;18.17;;
8480;SDS011;4277;51.354;6.740;2024-02-28T01:11:29;33.23;;;17.80;;
8480;SDS011;4277;51.354;6.740;2024-02-28T01:13:55;35.93;;;18.63;;
8480;SDS011;4277;51.354;6.740;2024-02-28T01:16:21;33.07;;;18.27;;
8480;SDS011;4277;51.354;6.740;2024-02-28T01:18:47;37.60;;;19.97;;
8480;SDS011;4277;51.354;6.740;2024-02-28T01:21:13;31.53;;;17.87;;
8480;SDS011;4277;51.354;6.740;2024-02-28T01:23:39;31.67;;;18.13;;
8480;SDS011;4277;51.354;6.740;2024-02-28T01:26:05;32.50;;;18.43;;
8480;SDS011;4277;51.354;6.740;2024-02-28T01:28:31;34.93;;;18.43;;
8480;SDS011;4277;51.354;6.740;2024-02-28T01:30:57;31.60;;;18.07;;
8480;SDS011;4277;51.354;6.740;2024-02-28T01:33:25;32.47;;;18.43;;
8480;SDS011;4277;51.354;6.740;2024-02-28T01:35:51;31.13;;;17.40;;
8480;SDS011;4277;51.354;6.740;2024-02-28T01:38:17;30.53;;;18.20;;
8480;SDS011;4277;51.354;6.740;2024-02-28T01:40:46;32.57;;;18.17;;
8480;SDS011;4277;51.354;6.740;2024-02-28T01:43:12;33.00;;;18.33;;
8480;SDS011;4277;51.354;6.740;2024-02-28T01:45:38;37.30;;;18.93;;
8480;SDS011;4277;51.354;6.740;2024-02-28T01:48:05;43.97;;;19.57;;
8480;SDS011;4277;51.354;6.740;2024-02-28T01:50:32;53.60;;;19.63;;
8480;SDS011;4277;51.354;6.740;2024-02-28T01:52:58;44.87;;;18.87;;
8480;SDS011;4277;51.354;6.740;2024-02-28T01:55:25;32.90;;;17.07;;
8480;SDS011;4277;51.354;6.740;2024-02-28T01:57:52;39.63;;;18.63;;
8480;SDS011;4277;51.354;6.740;2024-02-28T02:00:18;33.70;;;18.17;;
8480;SDS011;4277;51.354;6.740;2024-02-28T02:02:44;36.67;;;18.30;;
8480;SDS011;4277;51.354;6.740;2024-02-28T02:05:10;35.93;;;19.13;;
8480;SDS011;4277;51.354;6.740;2024-02-28T02:07:36;31.60;;;17.37;;
8480;SDS011;4277;51.354;6.740;2024-02-28T02:10:02;33.73;;;17.70;;
8480;SDS011;4277;51.354;6.740;2024-02-28T02:12:28;38.60;;;17.83;;
8480;SDS011;4277;51.354;6.740;2024-02-28T02:14:54;40.83;;;19.03;;
8480;SDS011;4277;51.354;6.740;2024-02-28T02:17:20;36.57;;;19.13;;
8480;SDS011;4277;51.354;6.740;2024-02-28T02:19:46;36.07;;;18.80;;
8480;SDS011;4277;51.354;6.740;2024-02-28T02:22:13;37.67;;;17.97;;
8480;SDS011;4277;51.354;6.740;2024-02-28T02:24:39;38.50;;;17.73;;
8480;SDS011;4277;51.354;6.740;2024-02-28T02:27:05;40.40;;;17.43;;
8480;SDS011;4277;51.354;6.740;2024-02-28T02:29:31;36.37;;;18.80;;
8480;SDS011;4277;51.354;6.740;2024-02-28T02:31:57;42.40;;;19.97;;
8480;SDS011;4277;51.354;6.740;2024-02-28T02:34:23;38.07;;;18.87;;
8480;SDS011;4277;51.354;6.740;2024-02-28T02:36:49;37.80;;;20.03;;
8480;SDS011;4277;51.354;6.740;2024-02-28T02:39:15;34.50;;;18.83;;
8480;SDS011;4277;51.354;6.740;2024-02-28T02:41:41;32.07;;;18.27;;
8480;SDS011;4277;51.354;6.740;2024-02-28T02:44:07;39.23;;;19.77;;
8480;SDS011;4277;51.354;6.740;2024-02-28T02:46:33;31.93;;;17.77;;
8480;SDS011;4277;51.354;6.740;2024-02-28T02:48:59;36.70;;;19.27;;
8480;SDS011;4277;51.354;6.740;2024-02-28T02:51:25;36.83;;;19.93;;
8480;SDS011;4277;51.354;6.740;2024-02-28T02:53:51;32.97;;;18.03;;
8480;SDS011;4277;51.354;6.740;2024-02-28T02:56:18;33.43;;;18.77;;
8480;SDS011;4277;51.354;6.740;2024-02-28T02:58:44;31.67;;;18.33;;
8480;SDS011;4277;51.354;6.740;2024-02-28T03:01:10;32.00;;;19.50;;
8480;SDS011;4277;51.354;6.740;2024-02-28T03:03:36;33.23;;;18.73;;
8480;SDS011;4277;51.354;6.740;2024-02-28T03:06:02;34.03;;;18.60;;
8480;SDS011;4277;51.354;6.740;2024-02-28T03:08:29;37.47;;;20.60;;
8480;SDS011;4277;51.354;6.740;2024-02-28T03:10:55;56.23;;;25.93;;
8480;SDS011;4277;51.354;6.740;2024-02-28T03:13:21;51.43;;;24.47;;
8480;SDS011;4277;51.354;6.740;2024-02-28T03:15:47;48.83;;;23.63;;
8480;SDS011;4277;51.354;6.740;2024-02-28T03:18:13;51.37;;;24.23;;
8480;SDS011;4277;51.354;6.740;2024-02-28T03:20:39;49.13;;;23.97;;
8480;SDS011;4277;51.354;6.740;2024-02-28T03:23:05;54.83;;;25.03;;
8480;SDS011;4277;51.354;6.740;2024-02-28T03:25:32;53.97;;;24.63;;
8480;SDS011;4277;51.354;6.740;2024-02-28T03:27:58;57.70;;;26.47;;
8480;SDS011;4277;51.354;6.740;2024-02-28T03:30:26;63.27;;;27.47;;
8480;SDS011;4277;51.354;6.740;2024-02-28T03:32:51;55.33;;;25.20;;
8480;SDS011;4277;51.354;6.740;2024-02-28T03:35:17;61.47;;;27.57;;
8480;SDS011;4277;51.354;6.740;2024-02-28T03:37:43;58.60;;;25.57;;
8480;SDS011;4277;51.354;6.740;2024-02-28T03:40:09;63.37;;;27.23;;
8480;SDS011;4277;51.354;6.740;2024-02-28T03:42:35;83.10;;;34.83;;
8480;SDS011;4277;51.354;6.740;2024-02-28T03:45:01;90.03;;;35.80;;
8480;SDS011;4277;51.354;6.740;2024-02-28T03:47:27;94.50;;;38.63;;
8480;SDS011;4277;51.354;6.740;2024-02-28T03:49:53;100.73;;;38.97;;
8480;SDS011;4277;51.354;6.740;2024-02-28T03:52:22;83.90;;;36.03;;
8480;SDS011;4277;51.354;6.740;2024-02-28T03:54:48;140.40;;;41.70;;
8480;SDS011;4277;51.354;6.740;2024-02-28T03:57:14;112.90;;;38.50;;
8480;SDS011;4277;51.354;6.740;2024-02-28T03:59:40;139.93;;;40.07;;
8480;SDS011;4277;51.354;6.740;2024-02-28T04:02:06;116.23;;;38.43;;
8480;SDS011;4277;51.354;6.740;2024-02-28T04:04:32;109.97;;;37.87;;
8480;SDS011;4277;51.354;6.740;2024-02-28T04:06:58;158.70;;;37.70;;
8480;SDS011;4277;51.354;6.740;2024-02-28T04:09:24;114.57;;;38.10;;
8480;SDS011;4277;51.354;6.740;2024-02-28T04:11:50;92.00;;;33.90;;
8480;SDS011;4277;51.354;6.740;2024-02-28T04:14:16;94.17;;;35.87;;
8480;SDS011;4277;51.354;6.740;2024-02-28T04:16:43;77.57;;;33.83;;
8480;SDS011;4277;51.354;6.740;2024-02-28T04:19:10;114.67;;;34.40;;
8480;SDS011;4277;51.354;6.740;2024-02-28T04:21:36;146.17;;;38.30;;
8480;SDS011;4277;51.354;6.740;2024-02-28T04:24:02;123.30;;;37.20;;
8480;SDS011;4277;51.354;6.740;2024-02-28T04:26:29;106.30;;;36.07;;
8480;SDS011;4277;51.354;6.740;2024-02-28T04:28:55;187.07;;;36.77;;
8480;SDS011;4277;51.354;6.740;2024-02-28T04:31:21;136.13;;;35.97;;
8480;SDS011;4277;51.354;6.740;2024-02-28T04:33:47;143.77;;;38.50;;
8480;SDS011;4277;51.354;6.740;2024-02-28T04:36:13;170.37;;;38.80;;
8480;SDS011;4277;51.354;6.740;2024-02-28T04:38:41;138.20;;;38.27;;
8480;SDS011;4277;51.354;6.740;2024-02-28T04:41:06;147.47;;;37.93;;
8480;SDS011;4277;51.354;6.740;2024-02-28T04:43:32;175.03;;;43.20;;
8480;SDS011;4277;51.354;6.740;2024-02-28T04:45:58;200.33;;;43.90;;
8480;SDS011;4277;51.354;6.740;2024-02-28T04:48:24;187.73;;;44.37;;
8480;SDS011;4277;51.354;6.740;2024-02-28T04:50:51;177.70;;;45.37;;
8480;SDS011;4277;51.354;6.740;2024-02-28T04:53:17;180.73;;;42.97;;
8480;SDS011;4277;51.354;6.740;2024-02-28T04:55:43;209.83;;;45.20;;
8480;SDS011;4277;51.354;6.740;2024-02-28T04:58:09;207.13;;;43.70;;
8480;SDS011;4277;51.354;6.740;2024-02-28T05:00:35;192.03;;;44.23;;
8480;SDS011;4277;51.354;6.740;2024-02-28T05:03:01;179.13;;;45.87;;
8480;SDS011;4277;51.354;6.740;2024-02-28T05:05:27;218.60;;;46.57;;
8480;SDS011;4277;51.354;6.740;2024-02-28T05:07:52;159.77;;;44.97;;
8480;SDS011;4277;51.354;6.740;2024-02-28T05:10:19;175.83;;;48.27;;
8480;SDS011;4277;51.354;6.740;2024-02-28T05:12:45;166.03;;;44.37;;
8480;SDS011;4277;51.354;6.740;2024-02-28T05:15:11;190.50;;;48.67;;
8480;SDS011;4277;51.354;6.740;2024-02-28T05:17:36;204.10;;;49.00;;
8480;SDS011;4277;51.354;6.740;2024-02-28T05:20:02;163.37;;;48.03;;
8480;SDS011;4277;51.354;6.740;2024-02-28T05:22:28;196.57;;;49.27;;
8480;SDS011;4277;51.354;6.740;2024-02-28T05:24:54;147.43;;;47.20;;
8480;SDS011;4277;51.354;6.740;2024-02-28T05:27:20;164.40;;;48.40;;
8480;SDS011;4277;51.354;6.740;2024-02-28T05:29:47;154.40;;;46.13;;
8480;SDS011;4277;51.354;6.740;2024-02-28T05:32:13;165.47;;;48.30;;
8480;SDS011;4277;51.354;6.740;2024-02-28T05:34:39;134.00;;;45.97;;
8480;SDS011;4277;51.354;6.740;2024-02-28T05:37:05;139.93;;;46.30;;
8480;SDS011;4277;51.354;6.740;2024-02-28T05:39:31;153.13;;;46.87;;
8480;SDS011;4277;51.354;6.740;2024-02-28T05:41:57;156.73;;;47.80;;
8480;SDS011;4277;51.354;6.740;2024-02-28T05:44:23;144.53;;;43.33;;
8480;SDS011;4277;51.354;6.740;2024-02-28T05:46:52;138.20;;;42.50;;
8480;SDS011;4277;51.354;6.740;2024-02-28T05:49:18;109.57;;;40.13;;
8480;SDS011;4277;51.354;6.740;2024-02-28T05:51:44;101.87;;;38.87;;
8480;SDS011;4277;51.354;6.740;2024-02-28T05:54:11;103.63;;;35.63;;
8480;SDS011;4277;51.354;6.740;2024-02-28T05:56:37;101.47;;;37.27;;
8480;SDS011;4277;51.354;6.740;2024-02-28T05:59:03;99.23;;;35.30;;
8480;SDS011;4277;51.354;6.740;2024-02-28T06:01:29;100.57;;;33.90;;
8480;SDS011;4277;51.354;6.740;2024-02-28T06:03:55;89.67;;;33.93;;
8480;SDS011;4277;51.354;6.740;2024-02-28T06:06:21;88.00;;;33.30;;
8480;SDS011;4277;51.354;6.740;2024-02-28T06:08:47;75.07;;;27.50;;
8480;SDS011;4277;51.354;6.740;2024-02-28T06:11:13;84.80;;;30.87;;
8480;SDS011;4277;51.354;6.740;2024-02-28T06:13:42;79.63;;;30.57;;
8480;SDS011;4277;51.354;6.740;2024-02-28T06:16:15;80.97;;;32.90;;
8480;SDS011;4277;51.354;6.740;2024-02-28T06:18:42;111.63;;;33.77;;
8480;SDS011;4277;51.354;6.740;2024-02-28T06:21:08;120.43;;;33.20;;
8480;SDS011;4277;51.354;6.740;2024-02-28T06:23:34;113.40;;;35.30;;
8480;SDS011;4277;51.354;6.740;2024-02-28T06:26:00;123.80;;;35.40;;
8480;SDS011;4277;51.354;6.740;2024-02-28T06:28:26;125.23;;;33.60;;
8480;SDS011;4277;51.354;6.740;2024-02-28T06:30:52;140.60;;;36.17;;
8480;SDS011;4277;51.354;6.740;2024-02-28T06:33:18;128.43;;;36.43;;
8480;SDS011;4277;51.354;6.740;2024-02-28T06:35:44;128.73;;;35.17;;
8480;SDS011;4277;51.354;6.740;2024-02-28T06:38:10;140.97;;;36.83;;
8480;SDS011;4277;51.354;6.740;2024-02-28T06:40:36;134.03;;;35.50;;
8480;SDS011;4277;51.354;6.740;2024-02-28T06:43:02;129.33;;;36.57;;
8480;SDS011;4277;51.354;6.740;2024-02-28T06:45:28;149.93;;;38.33;;
8480;SDS011;4277;51.354;6.740;2024-02-28T06:47:54;155.93;;;38.13;;
8480;SDS011;4277;51.354;6.740;2024-02-28T06:50:20;164.60;;;37.33;;
8480;SDS011;4277;51.354;6.740;2024-02-28T06:52:46;127.63;;;37.93;;
8480;SDS011;4277;51.354;6.740;2024-02-28T06:55:12;145.80;;;39.37;;
8480;SDS011;4277;51.354;6.740;2024-02-28T06:57:39;143.10;;;39.73;;
8480;SDS011;4277;51.354;6.740;2024-02-28T07:00:06;148.50;;;39.53;;
8480;SDS011;4277;51.354;6.740;2024-02-28T07:02:43;144.63;;;39.03;;
8480;SDS011;4277;51.354;6.740;2024-02-28T07:05:10;158.23;;;40.00;;
8480;SDS011;4277;51.354;6.740;2024-02-28T07:07:36;158.00;;;42.20;;
8480;SDS011;4277;51.354;6.740;2024-02-28T07:10:02;155.87;;;42.17;;
8480;SDS011;4277;51.354;6.740;2024-02-28T07:12:29;146.20;;;42.80;;
8480;SDS011;4277;51.354;6.740;2024-02-28T07:14:55;138.20;;;40.77;;
8480;SDS011;4277;51.354;6.740;2024-02-28T07:17:21;131.30;;;40.43;;
8480;SDS011;4277;51.354;6.740;2024-02-28T07:19:47;127.43;;;38.40;;
8480;SDS011;4277;51.354;6.740;2024-02-28T07:22:13;128.73;;;38.77;;
8480;SDS011;4277;51.354;6.740;2024-02-28T07:24:39;134.10;;;39.90;;
8480;SDS011;4277;51.354;6.740;2024-02-28T07:27:06;109.67;;;34.10;;
8480;SDS011;4277;51.354;6.740;2024-02-28T07:29:32;116.83;;;37.03;;
8480;SDS011;4277;51.354;6.740;2024-02-28T07:31:58;101.43;;;31.40;;
8480;SDS011;4277;51.354;6.740;2024-02-28T07:34:24;113.77;;;38.07;;
8480;SDS011;4277;51.354;6.740;2024-02-28T07:36:50;119.40;;;36.77;;
8480;SDS011;4277;51.354;6.740;2024-02-28T07:39:16;120.13;;;37.93;;
8480;SDS011;4277;51.354;6.740;2024-02-28T07:41:42;117.43;;;38.03;;
8480;SDS011;4277;51.354;6.740;2024-02-28T07:44:08;119.30;;;38.00;;
8480;SDS011;4277;51.354;6.740;2024-02-28T07:46:34;119.97;;;37.77;;
8480;SDS011;4277;51.354;6.740;2024-02-28T07:49:01;118.27;;;38.40;;
8480;SDS011;4277;51.354;6.740;2024-02-28T07:51:27;133.93;;;39.47;;
8480;SDS011;4277;51.354;6.740;2024-02-28T07:53:53;107.40;;;33.37;;
8480;SDS011;4277;51.354;6.740;2024-02-28T07:56:20;118.77;;;39.17;;
8480;SDS011;4277;51.354;6.740;2024-02-28T07:58:46;115.93;;;37.67;;
8480;SDS011;4277;51.354;6.740;2024-02-28T08:01:12;119.63;;;36.77;;
8480;SDS011;4277;51.354;6.740;2024-02-28T08:03:38;109.27;;;35.73;;
8480;SDS011;4277;51.354;6.740;2024-02-28T08:06:04;125.23;;;38.90;;
8480;SDS011;4277;51.354;6.740;2024-02-28T08:08:30;120.10;;;38.70;;
8480;SDS011;4277;51.354;6.740;2024-02-28T08:10:56;127.77;;;41.00;;
8480;SDS011;4277;51.354;6.740;2024-02-28T08:13:22;125.63;;;39.67;;
8480;SDS011;4277;51.354;6.740;2024-02-28T08:15:48;127.27;;;40.43;;
8480;SDS011;4277;51.354;6.740;2024-02-28T08:18:14;118.43;;;38.97;;
8480;SDS011;4277;51.354;6.740;2024-02-28T08:20:40;123.20;;;39.47;;
8480;SDS011;4277;51.354;6.740;2024-02-28T08:23:07;115.03;;;38.07;;
8480;SDS011;4277;51.354;6.740;2024-02-28T08:25:32;124.77;;;39.17;;
8480;SDS011;4277;51.354;6.740;2024-02-28T08:27:58;128.70;;;40.80;;
8480;SDS011;4277;51.354;6.740;2024-02-28T08:30:24;125.73;;;40.33;;
8480;SDS011;4277;51.354;6.740;2024-02-28T08:32:50;118.63;;;37.47;;
8480;SDS011;4277;51.354;6.740;2024-02-28T08:35:17;99.37;;;36.00;;
8480;SDS011;4277;51.354;6.740;2024-02-28T08:37:44;103.17;;;35.17;;
8480;SDS011;4277;51.354;6.740;2024-02-28T08:40:10;101.10;;;35.03;;
8480;SDS011;4277;51.354;6.740;2024-02-28T08:42:36;99.63;;;35.47;;
8480;SDS011;4277;51.354;6.740;2024-02-28T08:45:02;102.97;;;36.07;;
8480;SDS011;4277;51.354;6.740;2024-02-28T08:47:28;101.37;;;36.00;;
8480;SDS011;4277;51.354;6.740;2024-02-28T08:49:54;99.53;;;35.90;;
8480;SDS011;4277;51.354;6.740;2024-02-28T08:52:20;101.93;;;35.63;;
8480;SDS011;4277;51.354;6.740;2024-02-28T08:54:47;94.50;;;34.67;;
8480;SDS011;4277;51.354;6.740;2024-02-28T08:57:13;102.60;;;36.50;;
8480;SDS011;4277;51.354;6.740;2024-02-28T08:59:39;92.20;;;34.47;;
8480;SDS011;4277;51.354;6.740;2024-02-28T09:02:06;87.07;;;32.23;;
8480;SDS011;4277;51.354;6.740;2024-02-28T09:04:32;85.37;;;33.43;;
8480;SDS011;4277;51.354;6.740;2024-02-28T09:06:58;79.73;;;31.77;;
8480;SDS011;4277;51.354;6.740;2024-02-28T09:09:24;68.07;;;27.93;;
8480;SDS011;4277;51.354;6.740;2024-02-28T09:11:50;76.13;;;30.27;;
8480;SDS011;4277;51.354;6.740;2024-02-28T09:14:16;64.83;;;26.50;;
8480;SDS011;4277;51.354;6.740;2024-02-28T09:16:42;60.93;;;27.13;;
8480;SDS011;4277;51.354;6.740;2024-02-28T09:19:08;60.63;;;26.73;;
8480;SDS011;4277;51.354;6.740;2024-02-28T09:21:34;64.47;;;27.27;;
8480;SDS011;4277;51.354;6.740;2024-02-28T09:24:00;59.17;;;26.87;;
8480;SDS011;4277;51.354;6.740;2024-02-28T09:26:26;66.57;;;27.90;;
8480;SDS011;4277;51.354;6.740;2024-02-28T09:28:52;62.67;;;28.93;;
8480;SDS011;4277;51.354;6.740;2024-02-28T09:31:18;57.40;;;26.30;;
8480;SDS011;4277;51.354;6.740;2024-02-28T09:33:44;61.47;;;29.13;;
8480;SDS011;4277;51.354;6.740;2024-02-28T09:36:11;61.90;;;29.00;;
8480;SDS011;4277;51.354;6.740;2024-02-28T09:38:37;54.37;;;26.07;;
8480;SDS011;4277;51.354;6.740;2024-02-28T09:41:03;50.50;;;25.53;;
8480;SDS011;4277;51.354;6.740;2024-02-28T09:43:33;52.03;;;25.27;;
8480;SDS011;4277;51.354;6.740;2024-02-28T09:46:05;56.20;;;26.57;;
8480;SDS011;4277;51.354;6.740;2024-02-28T09:48:36;61.03;;;28.67;;
8480;SDS011;4277;51.354;6.740;2024-02-28T09:51:03;65.80;;;29.10;;
8480;SDS011;4277;51.354;6.740;2024-02-28T09:53:30;63.13;;;30.27;;
8480;SDS011;4277;51.354;6.740;2024-02-28T09:55:56;62.47;;;30.50;;
8480;SDS011;4277;51.354;6.740;2024-02-28T09:58:22;70.43;;;32.17;;
8480;SDS011;4277;51.354;6.740;2024-02-28T10:00:48;77.03;;;34.07;;
8480;SDS011;4277;51.354;6.740;2024-02-28T10:03:18;67.90;;;32.03;;
8480;SDS011;4277;51.354;6.740;2024-02-28T10:05:45;71.03;;;32.93;;
8480;SDS011;4277;51.354;6.740;2024-02-28T10:08:11;70.00;;;33.37;;
8480;SDS011;4277;51.354;6.740;2024-02-28T10:10:44;70.77;;;31.67;;
8480;SDS011;4277;51.354;6.740;2024-02-28T10:13:10;71.93;;;33.27;;
8480;SDS011;4277;51.354;6.740;2024-02-28T10:15:36;69.03;;;32.57;;
8480;SDS011;4277;51.354;6.740;2024-02-28T10:18:02;76.33;;;33.53;;
8480;SDS011;4277;51.354;6.740;2024-02-28T10:20:30;77.07;;;31.87;;
8480;SDS011;4277;51.354;6.740;2024-02-28T10:22:56;68.47;;;30.97;;
8480;SDS011;4277;51.354;6.740;2024-02-28T10:25:22;68.13;;;31.20;;
8480;SDS011;4277;51.354;6.740;2024-02-28T10:27:48;62.80;;;28.40;;
8480;SDS011;4277;51.354;6.740;2024-02-28T10:30:14;64.07;;;29.93;;
8480;SDS011;4277;51.354;6.740;2024-02-28T10:32:51;63.30;;;29.77;;
8480;SDS011;4277;51.354;6.740;2024-02-28T10:35:17;58.87;;;28.30;;
8480;SDS011;4277;51.354;6.740;2024-02-28T10:37:50;60.63;;;29.00;;
8480;SDS011;4277;51.354;6.740;2024-02-28T10:40:16;56.00;;;28.90;;
8480;SDS011;4277;51.354;6.740;2024-02-28T10:42:42;56.37;;;29.77;;
8480;SDS011;4277;51.354;6.740;2024-02-28T10:45:12;52.83;;;28.73;;
8480;SDS011;4277;51.354;6.740;2024-02-28T10:47:38;49.47;;;26.97;;
8480;SDS011;4277;51.354;6.740;2024-02-28T10:50:05;59.70;;;29.17;;
8480;SDS011;4277;51.354;6.740;2024-02-28T10:52:37;56.20;;;30.03;;
8480;SDS011;4277;51.354;6.740;2024-02-28T10:55:05;55.60;;;29.63;;
8480;SDS011;4277;51.354;6.740;2024-02-28T10:57:34;57.60;;;29.20;;
8480;SDS011;4277;51.354;6.740;2024-02-28T11:00:02;51.67;;;27.23;;
8480;SDS011;4277;51.354;6.740;2024-02-28T11:02:29;48.60;;;27.77;;
8480;SDS011;4277;51.354;6.740;2024-02-28T11:04:56;51.30;;;26.47;;
8480;SDS011;4277;51.354;6.740;2024-02-28T11:07:23;48.73;;;26.03;;
8480;SDS011;4277;51.354;6.740;2024-02-28T11:09:55;51.10;;;27.07;;
8480;SDS011;4277;51.354;6.740;2024-02-28T11:12:25;46.13;;;25.73;;
8480;SDS011;4277;51.354;6.740;2024-02-28T11:14:56;45.53;;;26.53;;
8480;SDS011;4277;51.354;6.740;2024-02-28T11:17:25;44.20;;;24.63;;
8480;SDS011;4277;51.354;6.740;2024-02-28T11:19:52;43.93;;;25.73;;
8480;SDS011;4277;51.354;6.740;2024-02-28T11:22:18;44.57;;;25.53;;
8480;SDS011;4277;51.354;6.740;2024-02-28T11:24:45;44.23;;;25.57;;
8480;SDS011;4277;51.354;6.740;2024-02-28T11:27:12;52.67;;;26.60;;
8480;SDS011;4277;51.354;6.740;2024-02-28T11:29:41;40.20;;;22.43;;
8480;SDS011;4277;51.354;6.740;2024-02-28T11:32:07;36.97;;;23.07;;
8480;SDS011;4277;51.354;6.740;2024-02-28T11:34:35;40.67;;;22.90;;
8480;SDS011;4277;51.354;6.740;2024-02-28T11:37:02;42.47;;;23.70;;
8480;SDS011;4277;51.354;6.740;2024-02-28T11:39:28;38.90;;;24.20;;
8480;SDS011;4277;51.354;6.740;2024-02-28T11:42:08;41.40;;;25.10;;
8480;SDS011;4277;51.354;6.740;2024-02-28T11:44:34;40.23;;;23.83;;
8480;SDS011;4277;51.354;6.740;2024-02-28T11:47:00;43.77;;;25.13;;
8480;SDS011;4277;51.354;6.740;2024-02-28T11:49:26;39.97;;;24.13;;
8480;SDS011;4277;51.354;6.740;2024-02-28T11:51:52;40.83;;;25.13;;
8480;SDS011;4277;51.354;6.740;2024-02-28T11:54:18;41.90;;;24.60;;
8480;SDS011;4277;51.354;6.740;2024-02-28T11:56:43;39.43;;;24.00;;
8480;SDS011;4277;51.354;6.740;2024-02-28T11:59:10;39.77;;;23.40;;
8480;SDS011;4277;51.354;6.740;2024-02-28T12:01:40;40.00;;;22.93;;
8480;SDS011;4277;51.354;6.740;2024-02-28T12:04:06;34.70;;;22.13;;
8480;SDS011;4277;51.354;6.740;2024-02-28T12:06:33;37.70;;;22.50;;
8480;SDS011;4277;51.354;6.740;2024-02-28T12:09:00;34.20;;;21.53;;
8480;SDS011;4277;51.354;6.740;2024-02-28T12:11:26;37.10;;;21.43;;
8480;SDS011;4277;51.354;6.740;2024-02-28T12:13:54;38.13;;;21.87;;
8480;SDS011;4277;51.354;6.740;2024-02-28T12:16:24;35.83;;;21.50;;
8480;SDS011;4277;51.354;6.740;2024-02-28T12:18:53;36.03;;;22.47;;
8480;SDS011;4277;51.354;6.740;2024-02-28T12:21:20;37.03;;;22.30;;
8480;SDS011;4277;51.354;6.740;2024-02-28T12:23:46;34.67;;;22.83;;
8480;SDS011;4277;51.354;6.740;2024-02-28T12:26:18;35.80;;;21.40;;
8480;SDS011;4277;51.354;6.740;2024-02-28T12:28:44;36.87;;;20.97;;
8480;SDS011;4277;51.354;6.740;2024-02-28T12:31:10;32.37;;;20.63;;
8480;SDS011;4277;51.354;6.740;2024-02-28T12:33:37;33.20;;;20.97;;
8480;SDS011;4277;51.354;6.740;2024-02-28T12:36:03;33.93;;;20.73;;
8480;SDS011;4277;51.354;6.740;2024-02-28T12:38:29;34.37;;;20.27;;
8480;SDS011;4277;51.354;6.740;2024-02-28T12:40:56;32.93;;;19.93;;
8480;SDS011;4277;51.354;6.740;2024-02-28T12:43:22;31.63;;;20.70;;
8480;SDS011;4277;51.354;6.740;2024-02-28T12:45:48;33.53;;;21.43;;
8480;SDS011;4277;51.354;6.740;2024-02-28T12:48:14;34.87;;;20.53;;
8480;SDS011;4277;51.354;6.740;2024-02-28T12:50:40;35.10;;;21.20;;
8480;SDS011;4277;51.354;6.740;2024-02-28T12:53:06;31.13;;;20.17;;
8480;SDS011;4277;51.354;6.740;2024-02-28T12:55:32;33.50;;;19.87;;
8480;SDS011;4277;51.354;6.740;2024-02-28T12:57:57;33.90;;;20.67;;
8480;SDS011;4277;51.354;6.740;2024-02-28T13:00:25;31.13;;;19.97;;
8480;SDS011;4277;51.354;6.740;2024-02-28T13:02:51;27.80;;;18.10;;
8480;SDS011;4277;51.354;6.740;2024-02-28T13:05:19;30.37;;;18.93;;
8480;SDS011;4277;51.354;6.740;2024-02-28T13:07:45;31.07;;;19.37;;
8480;SDS011;4277;51.354;6.740;2024-02-28T13:10:11;30.20;;;19.50;;
8480;SDS011;4277;51.354;6.740;2024-02-28T13:12:38;30.77;;;20.63;;
8480;SDS011;4277;51.354;6.740;2024-02-28T13:15:04;32.13;;;20.43;;
8480;SDS011;4277;51.354;6.740;2024-02-28T13:17:31;30.03;;;20.27;;
8480;SDS011;4277;51.354;6.740;2024-02-28T13:19:57;30.93;;;20.07;;
8480;SDS011;4277;51.354;6.740;2024-02-28T13:22:23;28.43;;;18.20;;
8480;SDS011;4277;51.354;6.740;2024-02-28T13:24:49;27.50;;;19.10;;
8480;SDS011;4277;51.354;6.740;2024-02-28T13:27:15;26.93;;;17.93;;
8480;SDS011;4277;51.354;6.740;2024-02-28T13:29:41;29.00;;;18.23;;
8480;SDS011;4277;51.354;6.740;2024-02-28T13:32:07;26.97;;;17.57;;
8480;SDS011;4277;51.354;6.740;2024-02-28T13:34:33;27.47;;;17.80;;
8480;SDS011;4277;51.354;6.740;2024-02-28T13:36:59;27.10;;;17.13;;
8480;SDS011;4277;51.354;6.740;2024-02-28T13:39:25;27.93;;;18.30;;
8480;SDS011;4277;51.354;6.740;2024-02-28T13:41:52;27.50;;;17.67;;
8480;SDS011;4277;51.354;6.740;2024-02-28T13:44:18;27.77;;;17.70;;
8480;SDS011;4277;51.354;6.740;2024-02-28T13:46:44;27.00;;;17.30;;
8480;SDS011;4277;51.354;6.740;2024-02-28T13:49:11;28.30;;;17.87;;
8480;SDS011;4277;51.354;6.740;2024-02-28T13:51:38;25.77;;;16.93;;
8480;SDS011;4277;51.354;6.740;2024-02-28T13:54:04;28.90;;;17.27;;
8480;SDS011;4277;51.354;6.740;2024-02-28T13:56:30;25.30;;;16.53;;
8480;SDS011;4277;51.354;6.740;2024-02-28T13:58:56;26.43;;;16.47;;
8480;SDS011;4277;51.354;6.740;2024-02-28T14:01:22;25.57;;;17.33;;
8480;SDS011;4277;51.354;6.740;2024-02-28T14:03:49;24.63;;;17.33;;
8480;SDS011;4277;51.354;6.740;2024-02-28T14:06:14;27.23;;;18.33;;
8480;SDS011;4277;51.354;6.740;2024-02-28T14:08:40;31.07;;;18.83;;
8480;SDS011;4277;51.354;6.740;2024-02-28T14:11:06;28.27;;;17.73;;
8480;SDS011;4277;51.354;6.740;2024-02-28T14:13:32;27.90;;;18.50;;
8480;SDS011;4277;51.354;6.740;2024-02-28T14:15:58;27.50;;;18.43;;
8480;SDS011;4277;51.354;6.740;2024-02-28T14:18:24;29.17;;;18.50;;
8480;SDS011;4277;51.354;6.740;2024-02-28T14:20:50;26.17;;;16.70;;
8480;SDS011;4277;51.354;6.740;2024-02-28T14:23:16;24.33;;;16.00;;
8480;SDS011;4277;51.354;6.740;2024-02-28T14:25:43;26.13;;;15.10;;
8480;SDS011;4277;51.354;6.740;2024-02-28T14:28:09;24.77;;;16.50;;
8480;SDS011;4277;51.354;6.740;2024-02-28T14:30:35;26.13;;;16.43;;
8480;SDS011;4277;51.354;6.740;2024-02-28T14:33:01;27.33;;;17.70;;
8480;SDS011;4277;51.354;6.740;2024-02-28T14:35:27;25.37;;;16.73;;
8480;SDS011;4277;51.354;6.740;2024-02-28T14:37:53;24.60;;;16.50;;